sensor_id;sensor_type;location;lat;lon;timestamp;P1;durP1;ratioP1;P2;durP2;ratioP2
42726;SDS011;28372;56.832;60.658;2022-09-12T00:01:13;4.80;;;2.35;;
42726;SDS011;28372;56.832;60.658;2022-09-12T00:03:42;8.00;;;2.70;;
42726;SDS011;28372;56.832;60.658;2022-09-12T00:06:20;5.47;;;2.90;;
42726;SDS011;28372;56.832;60.658;2022-09-12T00:08:52;5.65;;;2.85;;
42726;SDS011;28372;56.832;60.658;2022-09-12T00:11:21;6.45;;;3.00;;
42726;SDS011;28372;56.832;60.658;2022-09-12T00:13:48;5.18;;;2.50;;
42726;SDS011;28372;56.832;60.658;2022-09-12T00:16:16;5.30;;;2.40;;
42726;SDS011;28372;56.832;60.658;2022-09-12T00:18:46;4.85;;;2.30;;
42726;SDS011;28372;56.832;60.658;2022-09-12T00:21:15;5.38;;;2.50;;
42726;SDS011;28372;56.832;60.658;2022-09-12T00:23:43;6.22;;;2.50;;
42726;SDS011;28372;56.832;60.658;2022-09-12T00:26:12;5.15;;;2.85;;
42726;SDS011;28372;56.832;60.658;2022-09-12T00:28:40;6.38;;;2.50;;
42726;SDS011;28372;56.832;60.658;2022-09-12T00:31:18;4.95;;;2.38;;
42726;SDS011;28372;56.832;60.658;2022-09-12T00:33:50;5.15;;;2.47;;
42726;SDS011;28372;56.832;60.658;2022-09-12T00:36:19;4.93;;;2.40;;
42726;SDS011;28372;56.832;60.658;2022-09-12T00:38:49;4.43;;;2.30;;
42726;SDS011;28372;56.832;60.658;2022-09-12T00:41:18;4.93;;;2.38;;
42726;SDS011;28372;56.832;60.658;2022-09-12T00:43:48;5.97;;;2.50;;
42726;SDS011;28372;56.832;60.658;2022-09-12T00:48:50;6.00;;;3.00;;
42726;SDS011;28372;56.832;60.658;2022-09-12T00:51:41;5.93;;;2.80;;
42726;SDS011;28372;56.832;60.658;2022-09-12T00:54:16;7.28;;;2.90;;
42726;SDS011;28372;56.832;60.658;2022-09-12T00:56:48;5.50;;;2.75;;
42726;SDS011;28372;56.832;60.658;2022-09-12T00:59:21;6.40;;;2.78;;
42726;SDS011;28372;56.832;60.658;2022-09-12T01:01:53;6.07;;;2.80;;
42726;SDS011;28372;56.832;60.658;2022-09-12T01:04:22;6.00;;;2.70;;
42726;SDS011;28372;56.832;60.658;2022-09-12T01:06:54;6.35;;;3.03;;
42726;SDS011;28372;56.832;60.658;2022-09-12T01:09:24;4.85;;;2.70;;
42726;SDS011;28372;56.832;60.658;2022-09-12T01:11:52;5.63;;;2.50;;
42726;SDS011;28372;56.832;60.658;2022-09-12T01:14:20;5.60;;;2.63;;
42726;SDS011;28372;56.832;60.658;2022-09-12T01:16:48;4.90;;;2.40;;
42726;SDS011;28372;56.832;60.658;2022-09-12T01:27:19;4.30;;;2.08;;
42726;SDS011;28372;56.832;60.658;2022-09-12T01:38:47;4.72;;;2.40;;
42726;SDS011;28372;56.832;60.658;2022-09-12T01:41:28;4.03;;;2.20;;
42726;SDS011;28372;56.832;60.658;2022-09-12T01:44:00;5.55;;;2.25;;
42726;SDS011;28372;56.832;60.658;2022-09-12T01:46:31;6.15;;;2.97;;
42726;SDS011;28372;56.832;60.658;2022-09-12T01:52:09;12.35;;;6.05;;
42726;SDS011;28372;56.832;60.658;2022-09-12T01:54:50;5.78;;;2.50;;
42726;SDS011;28372;56.832;60.658;2022-09-12T01:57:33;5.10;;;2.00;;
42726;SDS011;28372;56.832;60.658;2022-09-12T02:00:22;5.82;;;2.50;;
42726;SDS011;28372;56.832;60.658;2022-09-12T02:02:57;4.28;;;2.35;;
42726;SDS011;28372;56.832;60.658;2022-09-12T02:08:32;6.53;;;2.20;;
42726;SDS011;28372;56.832;60.658;2022-09-12T02:11:08;4.40;;;2.00;;
42726;SDS011;28372;56.832;60.658;2022-09-12T02:13:42;4.85;;;1.88;;
42726;SDS011;28372;56.832;60.658;2022-09-12T02:16:31;3.45;;;1.77;;
42726;SDS011;28372;56.832;60.658;2022-09-12T02:19:19;4.18;;;1.73;;
42726;SDS011;28372;56.832;60.658;2022-09-12T02:21:54;5.13;;;2.25;;
42726;SDS011;28372;56.832;60.658;2022-09-12T02:24:27;3.42;;;1.63;;
42726;SDS011;28372;56.832;60.658;2022-09-12T02:27:17;3.63;;;1.70;;
42726;SDS011;28372;56.832;60.658;2022-09-12T02:29:52;3.47;;;1.40;;
42726;SDS011;28372;56.832;60.658;2022-09-12T02:32:27;3.53;;;1.83;;
42726;SDS011;28372;56.832;60.658;2022-09-12T02:38:08;3.78;;;2.22;;
42726;SDS011;28372;56.832;60.658;2022-09-12T02:40:42;3.72;;;1.98;;
42726;SDS011;28372;56.832;60.658;2022-09-12T02:43:10;4.97;;;2.10;;
42726;SDS011;28372;56.832;60.658;2022-09-12T02:45:37;6.72;;;2.88;;
42726;SDS011;28372;56.832;60.658;2022-09-12T02:48:09;4.93;;;2.72;;
42726;SDS011;28372;56.832;60.658;2022-09-12T02:50:39;6.22;;;2.70;;
42726;SDS011;28372;56.832;60.658;2022-09-12T02:53:07;5.53;;;2.60;;
42726;SDS011;28372;56.832;60.658;2022-09-12T02:55:36;5.68;;;2.80;;
42726;SDS011;28372;56.832;60.658;2022-09-12T02:58:07;7.47;;;3.13;;
42726;SDS011;28372;56.832;60.658;2022-09-12T03:00:42;6.90;;;3.05;;
42726;SDS011;28372;56.832;60.658;2022-09-12T03:06:34;8.80;;;3.58;;
42726;SDS011;28372;56.832;60.658;2022-09-12T03:22:46;6.80;;;3.40;;
42726;SDS011;28372;56.832;60.658;2022-09-12T03:25:22;6.93;;;3.45;;
42726;SDS011;28372;56.832;60.658;2022-09-12T03:28:25;6.90;;;3.80;;
42726;SDS011;28372;56.832;60.658;2022-09-12T03:30:46;8.05;;;4.10;;
42726;SDS011;28372;56.832;60.658;2022-09-12T03:33:18;6.20;;;3.70;;
42726;SDS011;28372;56.832;60.658;2022-09-12T03:35:48;9.25;;;3.95;;
42726;SDS011;28372;56.832;60.658;2022-09-12T03:38:18;11.13;;;4.35;;
42726;SDS011;28372;56.832;60.658;2022-09-12T03:40:45;9.48;;;4.63;;
42726;SDS011;28372;56.832;60.658;2022-09-12T03:43:19;7.93;;;4.75;;
42726;SDS011;28372;56.832;60.658;2022-09-12T03:45:50;9.27;;;5.13;;
42726;SDS011;28372;56.832;60.658;2022-09-12T03:48:19;9.05;;;5.53;;
42726;SDS011;28372;56.832;60.658;2022-09-12T03:50:47;10.18;;;5.25;;
42726;SDS011;28372;56.832;60.658;2022-09-12T03:53:14;12.60;;;6.47;;
42726;SDS011;28372;56.832;60.658;2022-09-12T03:55:43;14.60;;;6.30;;
42726;SDS011;28372;56.832;60.658;2022-09-12T03:58:10;10.25;;;5.70;;
42726;SDS011;28372;56.832;60.658;2022-09-12T04:00:38;9.68;;;6.28;;
42726;SDS011;28372;56.832;60.658;2022-09-12T04:03:07;12.77;;;6.65;;
42726;SDS011;28372;56.832;60.658;2022-09-12T04:05:35;11.13;;;6.63;;
42726;SDS011;28372;56.832;60.658;2022-09-12T04:08:02;10.30;;;6.10;;
42726;SDS011;28372;56.832;60.658;2022-09-12T04:10:30;12.25;;;5.72;;
42726;SDS011;28372;56.832;60.658;2022-09-12T04:12:58;11.40;;;5.65;;
42726;SDS011;28372;56.832;60.658;2022-09-12T04:15:25;9.32;;;5.25;;
42726;SDS011;28372;56.832;60.658;2022-09-12T04:17:53;10.07;;;5.30;;
42726;SDS011;28372;56.832;60.658;2022-09-12T04:20:20;9.60;;;5.82;;
42726;SDS011;28372;56.832;60.658;2022-09-12T04:22:48;11.65;;;7.32;;
42726;SDS011;28372;56.832;60.658;2022-09-12T04:25:16;10.88;;;6.57;;
42726;SDS011;28372;56.832;60.658;2022-09-12T04:27:43;11.25;;;6.47;;
42726;SDS011;28372;56.832;60.658;2022-09-12T04:30:11;13.07;;;6.22;;
42726;SDS011;28372;56.832;60.658;2022-09-12T04:32:38;10.82;;;7.18;;
42726;SDS011;28372;56.832;60.658;2022-09-12T04:35:07;13.45;;;6.38;;
42726;SDS011;28372;56.832;60.658;2022-09-12T04:37:34;11.35;;;6.28;;
42726;SDS011;28372;56.832;60.658;2022-09-12T04:40:02;14.27;;;6.35;;
42726;SDS011;28372;56.832;60.658;2022-09-12T04:42:30;10.77;;;5.40;;
42726;SDS011;28372;56.832;60.658;2022-09-12T04:44:58;13.98;;;7.13;;
42726;SDS011;28372;56.832;60.658;2022-09-12T04:47:25;10.73;;;5.80;;
42726;SDS011;28372;56.832;60.658;2022-09-12T04:49:53;9.48;;;5.75;;
42726;SDS011;28372;56.832;60.658;2022-09-12T04:52:21;10.10;;;5.55;;
42726;SDS011;28372;56.832;60.658;2022-09-12T04:54:48;9.38;;;4.75;;
42726;SDS011;28372;56.832;60.658;2022-09-12T04:57:16;7.72;;;4.80;;
42726;SDS011;28372;56.832;60.658;2022-09-12T04:59:43;8.50;;;5.18;;
42726;SDS011;28372;56.832;60.658;2022-09-12T05:02:11;10.20;;;5.28;;
42726;SDS011;28372;56.832;60.658;2022-09-12T05:04:38;11.05;;;6.47;;
42726;SDS011;28372;56.832;60.658;2022-09-12T05:07:06;9.57;;;6.00;;
42726;SDS011;28372;56.832;60.658;2022-09-12T05:09:34;13.32;;;5.85;;
42726;SDS011;28372;56.832;60.658;2022-09-12T05:12:01;12.00;;;5.97;;
42726;SDS011;28372;56.832;60.658;2022-09-12T05:14:31;11.38;;;6.65;;
42726;SDS011;28372;56.832;60.658;2022-09-12T05:17:00;9.18;;;6.25;;
42726;SDS011;28372;56.832;60.658;2022-09-12T05:19:28;10.25;;;6.28;;
42726;SDS011;28372;56.832;60.658;2022-09-12T05:21:57;8.88;;;5.70;;
42726;SDS011;28372;56.832;60.658;2022-09-12T05:24:25;9.27;;;5.90;;
42726;SDS011;28372;56.832;60.658;2022-09-12T05:26:52;10.27;;;6.13;;
42726;SDS011;28372;56.832;60.658;2022-09-12T05:29:20;11.30;;;6.20;;
42726;SDS011;28372;56.832;60.658;2022-09-12T05:31:47;11.82;;;6.90;;
42726;SDS011;28372;56.832;60.658;2022-09-12T05:34:18;9.80;;;6.93;;
42726;SDS011;28372;56.832;60.658;2022-09-12T05:36:46;13.00;;;6.25;;
42726;SDS011;28372;56.832;60.658;2022-09-12T05:39:14;11.30;;;6.90;;
42726;SDS011;28372;56.832;60.658;2022-09-12T05:41:41;11.77;;;6.07;;
42726;SDS011;28372;56.832;60.658;2022-09-12T05:44:10;12.00;;;6.47;;
42726;SDS011;28372;56.832;60.658;2022-09-12T05:46:41;10.75;;;4.97;;
42726;SDS011;28372;56.832;60.658;2022-09-12T05:49:10;8.90;;;4.82;;
42726;SDS011;28372;56.832;60.658;2022-09-12T05:51:40;10.30;;;5.03;;
42726;SDS011;28372;56.832;60.658;2022-09-12T05:54:10;9.23;;;4.65;;
42726;SDS011;28372;56.832;60.658;2022-09-12T05:56:40;10.45;;;5.68;;
42726;SDS011;28372;56.832;60.658;2022-09-12T05:59:13;11.35;;;5.65;;
42726;SDS011;28372;56.832;60.658;2022-09-12T06:01:45;11.25;;;5.85;;
42726;SDS011;28372;56.832;60.658;2022-09-12T06:04:13;9.15;;;5.40;;
42726;SDS011;28372;56.832;60.658;2022-09-12T06:06:42;11.48;;;5.95;;
42726;SDS011;28372;56.832;60.658;2022-09-12T06:09:12;12.52;;;6.80;;
42726;SDS011;28372;56.832;60.658;2022-09-12T06:11:41;15.23;;;7.95;;
42726;SDS011;28372;56.832;60.658;2022-09-12T06:14:10;13.65;;;8.77;;
42726;SDS011;28372;56.832;60.658;2022-09-12T06:16:39;19.23;;;9.60;;
42726;SDS011;28372;56.832;60.658;2022-09-12T06:19:11;15.13;;;9.05;;
42726;SDS011;28372;56.832;60.658;2022-09-12T06:21:42;14.02;;;8.10;;
42726;SDS011;28372;56.832;60.658;2022-09-12T06:24:10;13.35;;;8.00;;
42726;SDS011;28372;56.832;60.658;2022-09-12T06:26:37;13.52;;;7.93;;
42726;SDS011;28372;56.832;60.658;2022-09-12T06:29:05;13.63;;;7.97;;
42726;SDS011;28372;56.832;60.658;2022-09-12T06:31:35;12.32;;;7.88;;
42726;SDS011;28372;56.832;60.658;2022-09-12T06:34:05;15.00;;;7.50;;
42726;SDS011;28372;56.832;60.658;2022-09-12T06:36:38;12.43;;;7.28;;
42726;SDS011;28372;56.832;60.658;2022-09-12T06:39:09;11.90;;;6.50;;
42726;SDS011;28372;56.832;60.658;2022-09-12T06:41:38;11.27;;;5.90;;
42726;SDS011;28372;56.832;60.658;2022-09-12T06:44:16;10.07;;;5.82;;
42726;SDS011;28372;56.832;60.658;2022-09-12T06:46:46;10.77;;;5.10;;
42726;SDS011;28372;56.832;60.658;2022-09-12T06:49:14;11.55;;;5.53;;
42726;SDS011;28372;56.832;60.658;2022-09-12T06:51:41;11.98;;;5.60;;
42726;SDS011;28372;56.832;60.658;2022-09-12T06:54:12;12.43;;;4.43;;
42726;SDS011;28372;56.832;60.658;2022-09-12T06:56:41;5.95;;;3.42;;
42726;SDS011;28372;56.832;60.658;2022-09-12T06:59:10;9.43;;;3.22;;
42726;SDS011;28372;56.832;60.658;2022-09-12T07:01:38;6.13;;;3.42;;
42726;SDS011;28372;56.832;60.658;2022-09-12T07:04:08;7.13;;;3.45;;
42726;SDS011;28372;56.832;60.658;2022-09-12T07:06:37;6.70;;;3.22;;
42726;SDS011;28372;56.832;60.658;2022-09-12T07:09:07;8.60;;;4.07;;
42726;SDS011;28372;56.832;60.658;2022-09-12T07:11:38;9.77;;;3.33;;
42726;SDS011;28372;56.832;60.658;2022-09-12T07:14:08;12.63;;;3.67;;
42726;SDS011;28372;56.832;60.658;2022-09-12T07:16:38;7.78;;;3.25;;
42726;SDS011;28372;56.832;60.658;2022-09-12T07:19:06;7.25;;;3.50;;
42726;SDS011;28372;56.832;60.658;2022-09-12T07:21:34;6.13;;;3.13;;
42726;SDS011;28372;56.832;60.658;2022-09-12T07:24:07;5.70;;;3.10;;
42726;SDS011;28372;56.832;60.658;2022-09-12T07:26:36;8.15;;;3.10;;
42726;SDS011;28372;56.832;60.658;2022-09-12T07:29:06;5.05;;;2.90;;
42726;SDS011;28372;56.832;60.658;2022-09-12T07:34:27;5.00;;;2.67;;
42726;SDS011;28372;56.832;60.658;2022-09-12T07:36:55;4.93;;;2.67;;
42726;SDS011;28372;56.832;60.658;2022-09-12T07:39:22;4.65;;;2.50;;
42726;SDS011;28372;56.832;60.658;2022-09-12T07:41:50;6.95;;;2.90;;
42726;SDS011;28372;56.832;60.658;2022-09-12T07:44:17;5.95;;;1.65;;
42726;SDS011;28372;56.832;60.658;2022-09-12T07:46:44;3.88;;;1.25;;
42726;SDS011;28372;56.832;60.658;2022-09-12T07:49:12;5.25;;;1.80;;
42726;SDS011;28372;56.832;60.658;2022-09-12T07:51:39;6.20;;;1.60;;
42726;SDS011;28372;56.832;60.658;2022-09-12T07:54:07;4.80;;;1.33;;
42726;SDS011;28372;56.832;60.658;2022-09-12T07:56:35;3.83;;;1.20;;
42726;SDS011;28372;56.832;60.658;2022-09-12T07:59:05;3.35;;;1.40;;
42726;SDS011;28372;56.832;60.658;2022-09-12T08:01:34;2.58;;;1.30;;
42726;SDS011;28372;56.832;60.658;2022-09-12T08:04:01;5.13;;;1.63;;
42726;SDS011;28372;56.832;60.658;2022-09-12T08:06:31;2.70;;;1.33;;
42726;SDS011;28372;56.832;60.658;2022-09-12T08:09:02;2.65;;;1.40;;
42726;SDS011;28372;56.832;60.658;2022-09-12T08:11:30;2.08;;;1.10;;
42726;SDS011;28372;56.832;60.658;2022-09-12T08:13:58;3.30;;;1.25;;
42726;SDS011;28372;56.832;60.658;2022-09-12T08:16:28;4.63;;;1.48;;
42726;SDS011;28372;56.832;60.658;2022-09-12T08:18:58;3.83;;;1.30;;
42726;SDS011;28372;56.832;60.658;2022-09-12T08:21:27;4.20;;;1.52;;
42726;SDS011;28372;56.832;60.658;2022-09-12T08:23:57;2.80;;;1.40;;
42726;SDS011;28372;56.832;60.658;2022-09-12T08:26:27;3.13;;;1.63;;
42726;SDS011;28372;56.832;60.658;2022-09-12T08:28:55;4.32;;;2.17;;
42726;SDS011;28372;56.832;60.658;2022-09-12T08:31:23;4.57;;;2.35;;
42726;SDS011;28372;56.832;60.658;2022-09-12T08:33:54;6.00;;;2.40;;
42726;SDS011;28372;56.832;60.658;2022-09-12T08:36:23;5.28;;;2.60;;
42726;SDS011;28372;56.832;60.658;2022-09-12T08:38:54;5.97;;;2.70;;
42726;SDS011;28372;56.832;60.658;2022-09-12T08:41:37;36.35;;;23.67;;
42726;SDS011;28372;56.832;60.658;2022-09-12T08:47:10;4.45;;;2.60;;
42726;SDS011;28372;56.832;60.658;2022-09-12T08:49:44;4.88;;;2.40;;
42726;SDS011;28372;56.832;60.658;2022-09-12T08:52:28;5.10;;;2.65;;
42726;SDS011;28372;56.832;60.658;2022-09-12T08:55:22;4.35;;;2.10;;
42726;SDS011;28372;56.832;60.658;2022-09-12T08:57:53;5.32;;;2.00;;
42726;SDS011;28372;56.832;60.658;2022-09-12T09:00:21;5.82;;;2.15;;
42726;SDS011;28372;56.832;60.658;2022-09-12T09:14:47;6.18;;;1.83;;
42726;SDS011;28372;56.832;60.658;2022-09-12T09:17:48;3.60;;;1.70;;
42726;SDS011;28372;56.832;60.658;2022-09-12T09:20:33;3.83;;;2.00;;
42726;SDS011;28372;56.832;60.658;2022-09-12T09:26:03;4.45;;;1.70;;
42726;SDS011;28372;56.832;60.658;2022-09-12T09:31:20;4.15;;;2.00;;
42726;SDS011;28372;56.832;60.658;2022-09-12T09:33:50;4.28;;;1.80;;
42726;SDS011;28372;56.832;60.658;2022-09-12T09:39:03;3.65;;;1.63;;
42726;SDS011;28372;56.832;60.658;2022-09-12T09:42:07;6.32;;;1.77;;
42726;SDS011;28372;56.832;60.658;2022-09-12T09:44:27;3.38;;;1.67;;
42726;SDS011;28372;56.832;60.658;2022-09-12T09:46:57;3.67;;;1.70;;
42726;SDS011;28372;56.832;60.658;2022-09-12T09:49:26;4.78;;;1.80;;
42726;SDS011;28372;56.832;60.658;2022-09-12T09:51:57;3.95;;;2.00;;
42726;SDS011;28372;56.832;60.658;2022-09-12T09:54:28;3.95;;;1.90;;
42726;SDS011;28372;56.832;60.658;2022-09-12T10:05:51;5.60;;;1.98;;
42726;SDS011;28372;56.832;60.658;2022-09-12T10:08:28;4.43;;;1.70;;
42726;SDS011;28372;56.832;60.658;2022-09-12T10:11:02;3.00;;;1.60;;
42726;SDS011;28372;56.832;60.658;2022-09-12T10:13:38;5.55;;;2.00;;
42726;SDS011;28372;56.832;60.658;2022-09-12T10:18:47;4.00;;;1.48;;
42726;SDS011;28372;56.832;60.658;2022-09-12T10:21:27;5.40;;;1.80;;
42726;SDS011;28372;56.832;60.658;2022-09-12T10:29:22;6.35;;;2.05;;
42726;SDS011;28372;56.832;60.658;2022-09-12T10:31:54;8.68;;;2.40;;
42726;SDS011;28372;56.832;60.658;2022-09-12T10:34:38;6.03;;;2.30;;
42726;SDS011;28372;56.832;60.658;2022-09-12T10:37:17;5.88;;;2.25;;
42726;SDS011;28372;56.832;60.658;2022-09-12T10:40:19;4.30;;;2.30;;
42726;SDS011;28372;56.832;60.658;2022-09-12T10:45:24;5.03;;;2.63;;
42726;SDS011;28372;56.832;60.658;2022-09-12T10:47:57;7.18;;;2.30;;
42726;SDS011;28372;56.832;60.658;2022-09-12T10:50:40;7.00;;;3.08;;
42726;SDS011;28372;56.832;60.658;2022-09-12T10:53:19;5.60;;;2.88;;
42726;SDS011;28372;56.832;60.658;2022-09-12T10:55:56;5.57;;;3.03;;
42726;SDS011;28372;56.832;60.658;2022-09-12T11:01:37;8.15;;;3.10;;
42726;SDS011;28372;56.832;60.658;2022-09-12T11:15:29;7.38;;;3.50;;
42726;SDS011;28372;56.832;60.658;2022-09-12T11:17:59;8.60;;;3.60;;
42726;SDS011;28372;56.832;60.658;2022-09-12T11:20:53;8.15;;;4.15;;
42726;SDS011;28372;56.832;60.658;2022-09-12T11:29:20;7.15;;;3.88;;
42726;SDS011;28372;56.832;60.658;2022-09-12T11:31:58;7.28;;;3.58;;
42726;SDS011;28372;56.832;60.658;2022-09-12T11:39:58;7.50;;;3.78;;
42726;SDS011;28372;56.832;60.658;2022-09-12T11:42:50;7.90;;;4.00;;
42726;SDS011;28372;56.832;60.658;2022-09-12T11:45:22;6.70;;;3.85;;
42726;SDS011;28372;56.832;60.658;2022-09-12T11:47:58;6.43;;;3.50;;
42726;SDS011;28372;56.832;60.658;2022-09-12T11:50:30;7.72;;;3.50;;
42726;SDS011;28372;56.832;60.658;2022-09-12T11:53:09;7.70;;;3.85;;
42726;SDS011;28372;56.832;60.658;2022-09-12T11:55:52;6.50;;;3.80;;
42726;SDS011;28372;56.832;60.658;2022-09-12T11:58:25;9.65;;;3.83;;
42726;SDS011;28372;56.832;60.658;2022-09-12T12:00:56;7.82;;;3.55;;
42726;SDS011;28372;56.832;60.658;2022-09-12T12:03:39;7.03;;;3.60;;
42726;SDS011;28372;56.832;60.658;2022-09-12T12:06:15;8.50;;;4.20;;
42726;SDS011;28372;56.832;60.658;2022-09-12T12:08:47;8.23;;;4.28;;
42726;SDS011;28372;56.832;60.658;2022-09-12T12:14:23;4.20;;;2.35;;
42726;SDS011;28372;56.832;60.658;2022-09-12T12:16:58;5.75;;;2.50;;
42726;SDS011;28372;56.832;60.658;2022-09-12T12:19:32;6.47;;;2.30;;
42726;SDS011;28372;56.832;60.658;2022-09-12T12:22:07;10.15;;;3.00;;
42726;SDS011;28372;56.832;60.658;2022-09-12T12:32:58;5.70;;;1.58;;
42726;SDS011;28372;56.832;60.658;2022-09-12T12:38:29;8.98;;;4.22;;
42726;SDS011;28372;56.832;60.658;2022-09-12T12:43:48;9.65;;;3.42;;
42726;SDS011;28372;56.832;60.658;2022-09-12T12:46:22;4.32;;;1.80;;
42726;SDS011;28372;56.832;60.658;2022-09-12T13:02:53;3.28;;;1.60;;
42726;SDS011;28372;56.832;60.658;2022-09-12T13:05:26;4.32;;;1.90;;
42726;SDS011;28372;56.832;60.658;2022-09-12T13:08:05;7.40;;;2.00;;
42726;SDS011;28372;56.832;60.658;2022-09-12T13:10:37;5.63;;;1.60;;
42726;SDS011;28372;56.832;60.658;2022-09-12T13:13:16;3.13;;;1.15;;
42726;SDS011;28372;56.832;60.658;2022-09-12T13:15:52;4.53;;;1.50;;
42726;SDS011;28372;56.832;60.658;2022-09-12T13:23:37;3.63;;;1.70;;
42726;SDS011;28372;56.832;60.658;2022-09-12T13:26:22;5.13;;;1.95;;
42726;SDS011;28372;56.832;60.658;2022-09-12T13:29:37;3.38;;;1.50;;
42726;SDS011;28372;56.832;60.658;2022-09-12T13:31:52;4.63;;;1.60;;
42726;SDS011;28372;56.832;60.658;2022-09-12T13:34:36;4.53;;;2.30;;
42726;SDS011;28372;56.832;60.658;2022-09-12T13:42:48;4.57;;;2.13;;
42726;SDS011;28372;56.832;60.658;2022-09-12T13:45:34;5.55;;;2.30;;
42726;SDS011;28372;56.832;60.658;2022-09-12T13:48:05;6.40;;;3.10;;
42726;SDS011;28372;56.832;60.658;2022-09-12T13:50:40;4.18;;;2.63;;
42726;SDS011;28372;56.832;60.658;2022-09-12T13:53:17;4.40;;;2.10;;
42726;SDS011;28372;56.832;60.658;2022-09-12T13:55:52;4.55;;;2.15;;
42726;SDS011;28372;56.832;60.658;2022-09-12T13:58:25;6.80;;;3.92;;
42726;SDS011;28372;56.832;60.658;2022-09-12T14:01:01;7.40;;;3.70;;
42726;SDS011;28372;56.832;60.658;2022-09-12T14:03:48;5.75;;;2.97;;
42726;SDS011;28372;56.832;60.658;2022-09-12T14:06:48;19.08;;;11.77;;
42726;SDS011;28372;56.832;60.658;2022-09-12T14:09:28;7.45;;;4.15;;
42726;SDS011;28372;56.832;60.658;2022-09-12T14:12:11;7.25;;;4.07;;
42726;SDS011;28372;56.832;60.658;2022-09-12T14:14:46;8.00;;;3.25;;
42726;SDS011;28372;56.832;60.658;2022-09-12T14:17:17;6.45;;;3.42;;
42726;SDS011;28372;56.832;60.658;2022-09-12T14:22:18;7.05;;;2.95;;
42726;SDS011;28372;56.832;60.658;2022-09-12T14:24:46;7.18;;;3.30;;
42726;SDS011;28372;56.832;60.658;2022-09-12T14:27:17;7.03;;;4.10;;
42726;SDS011;28372;56.832;60.658;2022-09-12T14:29:52;9.60;;;3.83;;
42726;SDS011;28372;56.832;60.658;2022-09-12T14:32:33;6.82;;;4.10;;
42726;SDS011;28372;56.832;60.658;2022-09-12T14:35:05;6.03;;;2.88;;
42726;SDS011;28372;56.832;60.658;2022-09-12T14:37:44;7.43;;;3.08;;
42726;SDS011;28372;56.832;60.658;2022-09-12T14:40:17;7.10;;;3.60;;
42726;SDS011;28372;56.832;60.658;2022-09-12T14:42:47;5.97;;;2.58;;
42726;SDS011;28372;56.832;60.658;2022-09-12T14:45:24;6.25;;;3.30;;
42726;SDS011;28372;56.832;60.658;2022-09-12T14:47:56;7.95;;;4.22;;
42726;SDS011;28372;56.832;60.658;2022-09-12T14:50:25;11.80;;;4.65;;
42726;SDS011;28372;56.832;60.658;2022-09-12T14:53:05;7.93;;;4.15;;
42726;SDS011;28372;56.832;60.658;2022-09-12T14:56:35;7.93;;;3.67;;
42726;SDS011;28372;56.832;60.658;2022-09-12T14:58:38;9.45;;;3.80;;
42726;SDS011;28372;56.832;60.658;2022-09-12T15:03:55;6.25;;;3.00;;
42726;SDS011;28372;56.832;60.658;2022-09-12T15:06:27;8.18;;;3.80;;
42726;SDS011;28372;56.832;60.658;2022-09-12T15:08:58;7.60;;;3.75;;
42726;SDS011;28372;56.832;60.658;2022-09-12T15:11:28;7.00;;;3.28;;
42726;SDS011;28372;56.832;60.658;2022-09-12T15:13:56;9.05;;;3.47;;
42726;SDS011;28372;56.832;60.658;2022-09-12T15:16:23;5.75;;;3.20;;
42726;SDS011;28372;56.832;60.658;2022-09-12T15:18:51;7.50;;;3.67;;
42726;SDS011;28372;56.832;60.658;2022-09-12T15:21:18;10.60;;;4.20;;
42726;SDS011;28372;56.832;60.658;2022-09-12T15:23:50;7.43;;;3.28;;
42726;SDS011;28372;56.832;60.658;2022-09-12T15:26:19;9.40;;;3.53;;
42726;SDS011;28372;56.832;60.658;2022-09-12T15:28:48;7.78;;;3.58;;
42726;SDS011;28372;56.832;60.658;2022-09-12T15:31:23;10.20;;;3.78;;
42726;SDS011;28372;56.832;60.658;2022-09-12T15:33:53;11.60;;;5.10;;
42726;SDS011;28372;56.832;60.658;2022-09-12T15:36:22;8.15;;;3.65;;
42726;SDS011;28372;56.832;60.658;2022-09-12T15:38:51;8.48;;;4.22;;
42726;SDS011;28372;56.832;60.658;2022-09-12T15:41:20;10.23;;;4.13;;
42726;SDS011;28372;56.832;60.658;2022-09-12T15:43:49;9.93;;;4.47;;
42726;SDS011;28372;56.832;60.658;2022-09-12T15:46:17;14.20;;;5.95;;
42726;SDS011;28372;56.832;60.658;2022-09-12T15:48:45;15.10;;;6.47;;
42726;SDS011;28372;56.832;60.658;2022-09-12T15:51:14;18.58;;;6.20;;
42726;SDS011;28372;56.832;60.658;2022-09-12T15:53:43;15.88;;;5.85;;
42726;SDS011;28372;56.832;60.658;2022-09-12T15:56:13;14.45;;;5.88;;
42726;SDS011;28372;56.832;60.658;2022-09-12T15:58:44;14.93;;;5.25;;
42726;SDS011;28372;56.832;60.658;2022-09-12T16:01:25;10.85;;;5.32;;
42726;SDS011;28372;56.832;60.658;2022-09-12T16:03:54;14.88;;;6.50;;
42726;SDS011;28372;56.832;60.658;2022-09-12T16:06:22;17.63;;;6.28;;
42726;SDS011;28372;56.832;60.658;2022-09-12T16:08:49;13.70;;;7.22;;
42726;SDS011;28372;56.832;60.658;2022-09-12T16:11:18;14.82;;;6.97;;
42726;SDS011;28372;56.832;60.658;2022-09-12T16:13:50;14.38;;;6.30;;
42726;SDS011;28372;56.832;60.658;2022-09-12T16:16:19;12.40;;;6.03;;
42726;SDS011;28372;56.832;60.658;2022-09-12T16:18:47;12.38;;;5.25;;
42726;SDS011;28372;56.832;60.658;2022-09-12T16:21:14;11.38;;;5.72;;
42726;SDS011;28372;56.832;60.658;2022-09-12T16:23:42;14.27;;;5.93;;
42726;SDS011;28372;56.832;60.658;2022-09-12T16:26:10;9.93;;;4.97;;
42726;SDS011;28372;56.832;60.658;2022-09-12T16:28:38;12.90;;;5.90;;
42726;SDS011;28372;56.832;60.658;2022-09-12T16:31:07;11.23;;;5.22;;
42726;SDS011;28372;56.832;60.658;2022-09-12T16:33:37;13.23;;;5.30;;
42726;SDS011;28372;56.832;60.658;2022-09-12T16:36:06;10.95;;;4.60;;
42726;SDS011;28372;56.832;60.658;2022-09-12T16:38:40;15.38;;;5.45;;
42726;SDS011;28372;56.832;60.658;2022-09-12T16:41:09;10.77;;;5.65;;
42726;SDS011;28372;56.832;60.658;2022-09-12T16:43:37;17.23;;;6.35;;
42726;SDS011;28372;56.832;60.658;2022-09-12T16:46:08;14.13;;;5.80;;
42726;SDS011;28372;56.832;60.658;2022-09-12T16:48:45;13.85;;;6.35;;
42726;SDS011;28372;56.832;60.658;2022-09-12T16:51:19;13.10;;;5.80;;
42726;SDS011;28372;56.832;60.658;2022-09-12T16:53:51;13.38;;;5.65;;
42726;SDS011;28372;56.832;60.658;2022-09-12T16:56:19;16.05;;;6.95;;
42726;SDS011;28372;56.832;60.658;2022-09-12T16:58:47;11.63;;;5.70;;
42726;SDS011;28372;56.832;60.658;2022-09-12T17:01:16;15.80;;;6.43;;
42726;SDS011;28372;56.832;60.658;2022-09-12T17:03:46;11.23;;;5.32;;
42726;SDS011;28372;56.832;60.658;2022-09-12T17:06:15;13.10;;;5.25;;
42726;SDS011;28372;56.832;60.658;2022-09-12T17:08:46;12.18;;;5.53;;
42726;SDS011;28372;56.832;60.658;2022-09-12T17:13:46;10.68;;;5.10;;
42726;SDS011;28372;56.832;60.658;2022-09-12T17:16:33;12.00;;;5.03;;
42726;SDS011;28372;56.832;60.658;2022-09-12T17:19:02;9.82;;;4.32;;
42726;SDS011;28372;56.832;60.658;2022-09-12T17:21:31;13.07;;;5.35;;
42726;SDS011;28372;56.832;60.658;2022-09-12T17:23:59;14.30;;;5.20;;
42726;SDS011;28372;56.832;60.658;2022-09-12T17:26:27;10.85;;;4.63;;
42726;SDS011;28372;56.832;60.658;2022-09-12T17:28:55;10.35;;;4.72;;
42726;SDS011;28372;56.832;60.658;2022-09-12T17:31:22;11.95;;;4.88;;
42726;SDS011;28372;56.832;60.658;2022-09-12T17:33:54;13.10;;;5.88;;
42726;SDS011;28372;56.832;60.658;2022-09-12T17:36:23;14.10;;;6.38;;
42726;SDS011;28372;56.832;60.658;2022-09-12T17:38:51;14.30;;;5.90;;
42726;SDS011;28372;56.832;60.658;2022-09-12T17:41:21;16.00;;;6.28;;
42726;SDS011;28372;56.832;60.658;2022-09-12T17:43:54;16.23;;;5.15;;
42726;SDS011;28372;56.832;60.658;2022-09-12T17:46:25;15.38;;;5.75;;